KBL weather

Hamid Karzai International Airport
Kabul, Kabul Province, Afghanistan

Public forecast

Using degrees Celsius for public forecast. Weather courtesy of forecast.io.

Current aviation weather report (METAR) for Hamid Karzai International Airport

Retrieved 2019/10/22 08:50 UTC (56 minutes ago):

OAKB 220850Z 35008KT 9999 FEW070 19/M01 Q1019 NOSIG RMK A3011 BLU BLU

Aviation forecast (TAF) for Hamid Karzai International Airport

Retrieved 2019/10/22 06:05 UTC (4 hours ago):

TAF OAKB 220505Z 2206/2306 VRB02KT 9999 FEW070 BECMG 2207/2209 36010KT SCT080 PROB40 TEMPO 2209/2215 02012G22KT 6000 TSRA SCT070CB BKN120 BECMG 2217/2219 VRB02KT CAVOK